sensor_id;sensor_type;location;lat;lon;timestamp;P1;durP1;ratioP1;P2;durP2;ratioP2
63955;SDS011;50131;52.084;5.228;2022-08-01T00:00:22;8.6;;;7.9;;
63955;SDS011;50131;52.084;5.228;2022-08-01T00:02:09;8.5;;;7.6;;
63955;SDS011;50131;52.084;5.228;2022-08-01T00:03:56;8.5;;;7.7;;
63955;SDS011;50131;52.084;5.228;2022-08-01T00:05:45;13.2;;;11.2;;
63955;SDS011;50131;52.084;5.228;2022-08-01T00:07:31;10.7;;;9.81;;
63955;SDS011;50131;52.084;5.228;2022-08-01T00:09:17;10.8;;;9.9;;
63955;SDS011;50131;52.084;5.228;2022-08-01T00:12:51;8.1;;;7.4;;
63955;SDS011;50131;52.084;5.228;2022-08-01T00:14:37;8.81;;;8.0;;
63955;SDS011;50131;52.084;5.228;2022-08-01T00:16:23;9.31;;;8.5;;
63955;SDS011;50131;52.084;5.228;2022-08-01T00:18:11;11.8;;;10.8;;
63955;SDS011;50131;52.084;5.228;2022-08-01T00:19:57;14.1;;;13.0;;
63955;SDS011;50131;52.084;5.228;2022-08-01T00:21:44;14.7;;;11.0;;
63955;SDS011;50131;52.084;5.228;2022-08-01T00:25:18;12.0;;;11.0;;
63955;SDS011;50131;52.084;5.228;2022-08-01T00:27:04;11.7;;;10.5;;
63955;SDS011;50131;52.084;5.228;2022-08-01T00:28:50;11.9;;;10.7;;
63955;SDS011;50131;52.084;5.228;2022-08-01T00:30:37;11.9;;;10.7;;
63955;SDS011;50131;52.084;5.228;2022-08-01T00:32:23;12.1;;;10.8;;
63955;SDS011;50131;52.084;5.228;2022-08-01T00:35:57;14.7;;;11.8;;
63955;SDS011;50131;52.084;5.228;2022-08-01T00:37:44;13.8;;;10.7;;
63955;SDS011;50131;52.084;5.228;2022-08-01T00:39:32;13.0;;;11.8;;
63955;SDS011;50131;52.084;5.228;2022-08-01T00:41:18;13.6;;;12.3;;
63955;SDS011;50131;52.084;5.228;2022-08-01T00:43:05;13.3;;;12.0;;
63955;SDS011;50131;52.084;5.228;2022-08-01T00:44:51;15.9;;;14.6;;
63955;SDS011;50131;52.084;5.228;2022-08-01T00:48:23;15.0;;;13.7;;
63955;SDS011;50131;52.084;5.228;2022-08-01T00:50:09;17.11;;;15.7;;
63955;SDS011;50131;52.084;5.228;2022-08-01T00:51:58;16.4;;;15.1;;
63955;SDS011;50131;52.084;5.228;2022-08-01T00:53:45;15.9;;;14.3;;
63955;SDS011;50131;52.084;5.228;2022-08-01T00:55:31;16.11;;;13.3;;
63955;SDS011;50131;52.084;5.228;2022-08-01T00:57:18;14.7;;;13.3;;
63955;SDS011;50131;52.084;5.228;2022-08-01T01:00:53;14.6;;;13.2;;
63955;SDS011;50131;52.084;5.228;2022-08-01T01:02:39;15.0;;;12.9;;
63955;SDS011;50131;52.084;5.228;2022-08-01T01:04:25;15.0;;;13.5;;
63955;SDS011;50131;52.084;5.228;2022-08-01T01:06:14;15.0;;;13.5;;
63955;SDS011;50131;52.084;5.228;2022-08-01T01:08:14;20.3;;;18.41;;
63955;SDS011;50131;52.084;5.228;2022-08-01T01:10:09;18.5;;;16.7;;
63955;SDS011;50131;52.084;5.228;2022-08-01T01:12:02;21.2;;;19.3;;
63955;SDS011;50131;52.084;5.228;2022-08-01T01:14:00;20.0;;;18.2;;
63955;SDS011;50131;52.084;5.228;2022-08-01T01:17:46;20.8;;;19.0;;
63955;SDS011;50131;52.084;5.228;2022-08-01T01:19:45;23.6;;;20.0;;
63955;SDS011;50131;52.084;5.228;2022-08-01T01:21:35;20.7;;;18.8;;
63955;SDS011;50131;52.084;5.228;2022-08-01T01:23:39;21.5;;;19.5;;
63955;SDS011;50131;52.084;5.228;2022-08-01T01:25:40;17.7;;;15.9;;
63955;SDS011;50131;52.084;5.228;2022-08-01T01:27:39;16.61;;;14.8;;
63955;SDS011;50131;52.084;5.228;2022-08-01T01:29:38;16.61;;;14.8;;
63955;SDS011;50131;52.084;5.228;2022-08-01T01:31:28;19.41;;;17.5;;
63955;SDS011;50131;52.084;5.228;2022-08-01T01:33:19;21.7;;;19.61;;
63955;SDS011;50131;52.084;5.228;2022-08-01T01:35:11;20.7;;;18.91;;
63955;SDS011;50131;52.084;5.228;2022-08-01T01:37:09;18.5;;;16.7;;
63955;SDS011;50131;52.084;5.228;2022-08-01T01:39:04;19.8;;;17.7;;
63955;SDS011;50131;52.084;5.228;2022-08-01T01:42:42;18.2;;;15.6;;
63955;SDS011;50131;52.084;5.228;2022-08-01T01:44:30;16.3;;;14.6;;
63955;SDS011;50131;52.084;5.228;2022-08-01T01:46:19;18.8;;;16.8;;
63955;SDS011;50131;52.084;5.228;2022-08-01T01:48:09;19.0;;;17.3;;
63955;SDS011;50131;52.084;5.228;2022-08-01T01:50:00;17.3;;;15.1;;
63955;SDS011;50131;52.084;5.228;2022-08-01T01:51:50;20.0;;;15.9;;
63955;SDS011;50131;52.084;5.228;2022-08-01T01:55:27;19.3;;;17.2;;
63955;SDS011;50131;52.084;5.228;2022-08-01T01:57:16;23.1;;;15.3;;
63955;SDS011;50131;52.084;5.228;2022-08-01T01:59:04;19.2;;;17.2;;
63955;SDS011;50131;52.084;5.228;2022-08-01T02:00:51;18.61;;;15.0;;
63955;SDS011;50131;52.084;5.228;2022-08-01T02:02:40;23.3;;;20.11;;
63955;SDS011;50131;52.084;5.228;2022-08-01T02:04:28;18.61;;;15.1;;
63955;SDS011;50131;52.084;5.228;2022-08-01T02:06:17;19.5;;;14.9;;
63955;SDS011;50131;52.084;5.228;2022-08-01T02:09:53;19.5;;;14.9;;
63955;SDS011;50131;52.084;5.228;2022-08-01T02:11:41;23.1;;;20.7;;
63955;SDS011;50131;52.084;5.228;2022-08-01T02:13:30;22.1;;;19.91;;
63955;SDS011;50131;52.084;5.228;2022-08-01T02:15:18;22.5;;;20.41;;
63955;SDS011;50131;52.084;5.228;2022-08-01T02:17:06;25.2;;;20.8;;
63955;SDS011;50131;52.084;5.228;2022-08-01T02:18:57;22.5;;;20.3;;
63955;SDS011;50131;52.084;5.228;2022-08-01T02:22:33;23.3;;;21.1;;
63955;SDS011;50131;52.084;5.228;2022-08-01T02:24:30;22.1;;;19.91;;
63955;SDS011;50131;52.084;5.228;2022-08-01T02:26:24;21.4;;;19.41;;
63955;SDS011;50131;52.084;5.228;2022-08-01T02:28:13;21.1;;;19.11;;
63955;SDS011;50131;52.084;5.228;2022-08-01T02:30:05;20.9;;;18.91;;
63955;SDS011;50131;52.084;5.228;2022-08-01T02:31:55;21.9;;;19.8;;
63955;SDS011;50131;52.084;5.228;2022-08-01T02:33:43;20.8;;;18.61;;
63955;SDS011;50131;52.084;5.228;2022-08-01T02:35:35;19.0;;;17.0;;
63955;SDS011;50131;52.084;5.228;2022-08-01T02:39:19;19.3;;;17.3;;
63955;SDS011;50131;52.084;5.228;2022-08-01T02:41:09;18.41;;;16.7;;
63955;SDS011;50131;52.084;5.228;2022-08-01T02:42:59;16.8;;;14.1;;
63955;SDS011;50131;52.084;5.228;2022-08-01T02:44:48;15.8;;;11.4;;
63955;SDS011;50131;52.084;5.228;2022-08-01T02:46:38;19.41;;;17.61;;
63955;SDS011;50131;52.084;5.228;2022-08-01T02:48:29;15.6;;;13.5;;
63955;SDS011;50131;52.084;5.228;2022-08-01T02:50:19;19.5;;;17.41;;
63955;SDS011;50131;52.084;5.228;2022-08-01T02:54:01;18.0;;;16.3;;
63955;SDS011;50131;52.084;5.228;2022-08-01T02:55:51;14.7;;;12.1;;
63955;SDS011;50131;52.084;5.228;2022-08-01T02:57:39;14.3;;;12.7;;
63955;SDS011;50131;52.084;5.228;2022-08-01T02:59:28;14.0;;;12.5;;
63955;SDS011;50131;52.084;5.228;2022-08-01T03:01:19;14.5;;;11.7;;
63955;SDS011;50131;52.084;5.228;2022-08-01T03:03:08;14.6;;;10.21;;
63955;SDS011;50131;52.084;5.228;2022-08-01T03:04:57;14.1;;;11.8;;
63955;SDS011;50131;52.084;5.228;2022-08-01T03:08:33;13.0;;;11.0;;
63955;SDS011;50131;52.084;5.228;2022-08-01T03:10:22;12.7;;;11.4;;
63955;SDS011;50131;52.084;5.228;2022-08-01T03:12:14;16.2;;;14.0;;
63955;SDS011;50131;52.084;5.228;2022-08-01T03:14:12;12.9;;;10.9;;
63955;SDS011;50131;52.084;5.228;2022-08-01T03:16:00;13.0;;;10.3;;
63955;SDS011;50131;52.084;5.228;2022-08-01T03:17:51;12.4;;;10.9;;
63955;SDS011;50131;52.084;5.228;2022-08-01T03:19:40;16.0;;;11.6;;
63955;SDS011;50131;52.084;5.228;2022-08-01T03:23:19;11.2;;;9.81;;
63955;SDS011;50131;52.084;5.228;2022-08-01T03:25:08;11.5;;;9.4;;
63955;SDS011;50131;52.084;5.228;2022-08-01T03:26:57;17.8;;;16.3;;
63955;SDS011;50131;52.084;5.228;2022-08-01T03:28:44;12.8;;;11.5;;
63955;SDS011;50131;52.084;5.228;2022-08-01T03:30:33;12.8;;;11.4;;
63955;SDS011;50131;52.084;5.228;2022-08-01T03:32:22;11.8;;;9.6;;
63955;SDS011;50131;52.084;5.228;2022-08-01T03:34:10;15.4;;;10.9;;
63955;SDS011;50131;52.084;5.228;2022-08-01T03:37:48;12.2;;;10.3;;
63955;SDS011;50131;52.084;5.228;2022-08-01T03:39:40;12.1;;;9.0;;
63955;SDS011;50131;52.084;5.228;2022-08-01T03:41:34;11.2;;;10.0;;
63955;SDS011;50131;52.084;5.228;2022-08-01T03:43:29;13.1;;;11.8;;
63955;SDS011;50131;52.084;5.228;2022-08-01T03:45:25;13.5;;;11.0;;
63955;SDS011;50131;52.084;5.228;2022-08-01T03:47:13;12.7;;;11.4;;
63955;SDS011;50131;52.084;5.228;2022-08-01T03:49:05;12.7;;;11.3;;
63955;SDS011;50131;52.084;5.228;2022-08-01T03:51:08;12.1;;;10.9;;
63955;SDS011;50131;52.084;5.228;2022-08-01T03:52:57;12.8;;;11.4;;
63955;SDS011;50131;52.084;5.228;2022-08-01T03:56:38;14.0;;;12.5;;
63955;SDS011;50131;52.084;5.228;2022-08-01T03:58:27;16.2;;;14.6;;
63955;SDS011;50131;52.084;5.228;2022-08-01T04:00:18;16.5;;;12.5;;
63955;SDS011;50131;52.084;5.228;2022-08-01T04:02:05;18.3;;;10.7;;
63955;SDS011;50131;52.084;5.228;2022-08-01T04:03:53;14.4;;;12.1;;
63955;SDS011;50131;52.084;5.228;2022-08-01T04:05:40;15.7;;;14.1;;
63955;SDS011;50131;52.084;5.228;2022-08-01T04:09:16;17.8;;;11.4;;
63955;SDS011;50131;52.084;5.228;2022-08-01T04:11:03;14.4;;;12.0;;
63955;SDS011;50131;52.084;5.228;2022-08-01T04:12:51;14.9;;;12.3;;
63955;SDS011;50131;52.084;5.228;2022-08-01T04:14:37;14.9;;;11.1;;
63955;SDS011;50131;52.084;5.228;2022-08-01T04:16:24;16.0;;;13.6;;
63955;SDS011;50131;52.084;5.228;2022-08-01T04:18:11;17.61;;;15.7;;
63955;SDS011;50131;52.084;5.228;2022-08-01T04:21:44;16.3;;;14.1;;
63955;SDS011;50131;52.084;5.228;2022-08-01T04:23:31;13.6;;;12.0;;
63955;SDS011;50131;52.084;5.228;2022-08-01T04:25:21;16.4;;;13.3;;
63955;SDS011;50131;52.084;5.228;2022-08-01T04:27:13;14.7;;;12.8;;
63955;SDS011;50131;52.084;5.228;2022-08-01T04:29:10;14.7;;;12.8;;
63955;SDS011;50131;52.084;5.228;2022-08-01T04:30:59;16.11;;;13.0;;
63955;SDS011;50131;52.084;5.228;2022-08-01T04:32:47;15.5;;;10.8;;
63955;SDS011;50131;52.084;5.228;2022-08-01T04:36:25;15.1;;;13.1;;
63955;SDS011;50131;52.084;5.228;2022-08-01T04:38:17;15.9;;;13.6;;
63955;SDS011;50131;52.084;5.228;2022-08-01T04:40:09;15.0;;;12.9;;
63955;SDS011;50131;52.084;5.228;2022-08-01T04:41:58;17.2;;;11.2;;
63955;SDS011;50131;52.084;5.228;2022-08-01T04:43:46;18.0;;;12.4;;
63955;SDS011;50131;52.084;5.228;2022-08-01T04:45:33;16.0;;;11.3;;
63955;SDS011;50131;52.084;5.228;2022-08-01T04:47:21;13.5;;;10.3;;
63955;SDS011;50131;52.084;5.228;2022-08-01T04:50:56;14.0;;;10.8;;
63955;SDS011;50131;52.084;5.228;2022-08-01T04:52:42;14.2;;;10.3;;
63955;SDS011;50131;52.084;5.228;2022-08-01T04:54:30;12.7;;;9.6;;
63955;SDS011;50131;52.084;5.228;2022-08-01T04:56:18;15.8;;;10.7;;
63955;SDS011;50131;52.084;5.228;2022-08-01T04:58:06;13.4;;;9.81;;
63955;SDS011;50131;52.084;5.228;2022-08-01T04:59:56;13.6;;;10.1;;
63955;SDS011;50131;52.084;5.228;2022-08-01T05:03:34;13.0;;;10.6;;
63955;SDS011;50131;52.084;5.228;2022-08-01T05:05:22;13.2;;;11.4;;
63955;SDS011;50131;52.084;5.228;2022-08-01T05:07:08;12.8;;;10.4;;
63955;SDS011;50131;52.084;5.228;2022-08-01T05:08:56;14.4;;;9.9;;
63955;SDS011;50131;52.084;5.228;2022-08-01T05:10:42;13.4;;;10.3;;
63955;SDS011;50131;52.084;5.228;2022-08-01T05:12:28;11.8;;;9.71;;
63955;SDS011;50131;52.084;5.228;2022-08-01T05:16:03;13.7;;;12.0;;
63955;SDS011;50131;52.084;5.228;2022-08-01T05:19:37;11.4;;;9.21;;
63955;SDS011;50131;52.084;5.228;2022-08-01T05:21:25;11.6;;;10.5;;
63955;SDS011;50131;52.084;5.228;2022-08-01T05:23:12;11.6;;;10.5;;
63955;SDS011;50131;52.084;5.228;2022-08-01T05:24:59;10.4;;;9.31;;
63955;SDS011;50131;52.084;5.228;2022-08-01T05:28:31;11.4;;;10.3;;
63955;SDS011;50131;52.084;5.228;2022-08-01T05:30:17;9.5;;;8.31;;
63955;SDS011;50131;52.084;5.228;2022-08-01T05:32:04;11.7;;;10.6;;
63955;SDS011;50131;52.084;5.228;2022-08-01T05:33:51;8.1;;;7.3;;
63955;SDS011;50131;52.084;5.228;2022-08-01T05:35:37;8.71;;;7.8;;
63955;SDS011;50131;52.084;5.228;2022-08-01T05:39:10;10.6;;;9.71;;
63955;SDS011;50131;52.084;5.228;2022-08-01T05:40:57;10.3;;;9.4;;
63955;SDS011;50131;52.084;5.228;2022-08-01T05:42:43;10.8;;;9.81;;
63955;SDS011;50131;52.084;5.228;2022-08-01T05:44:30;8.2;;;7.4;;
63955;SDS011;50131;52.084;5.228;2022-08-01T05:46:17;9.71;;;7.2;;
63955;SDS011;50131;52.084;5.228;2022-08-01T05:48:04;9.0;;;8.31;;
63955;SDS011;50131;52.084;5.228;2022-08-01T05:51:36;12.3;;;11.5;;
63955;SDS011;50131;52.084;5.228;2022-08-01T05:53:22;17.91;;;16.8;;
63955;SDS011;50131;52.084;5.228;2022-08-01T05:55:09;11.3;;;10.4;;
63955;SDS011;50131;52.084;5.228;2022-08-01T05:56:59;11.0;;;10.1;;
63955;SDS011;50131;52.084;5.228;2022-08-01T05:58:46;11.9;;;7.8;;
63955;SDS011;50131;52.084;5.228;2022-08-01T06:00:33;9.5;;;5.3;;
63955;SDS011;50131;52.084;5.228;2022-08-01T06:04:06;9.9;;;5.6;;
63955;SDS011;50131;52.084;5.228;2022-08-01T06:05:52;6.3;;;5.7;;
63955;SDS011;50131;52.084;5.228;2022-08-01T06:07:39;7.7;;;7.0;;
63955;SDS011;50131;52.084;5.228;2022-08-01T06:09:26;5.7;;;4.1;;
63955;SDS011;50131;52.084;5.228;2022-08-01T06:11:12;5.5;;;4.91;;
63955;SDS011;50131;52.084;5.228;2022-08-01T06:14:49;6.9;;;4.41;;
63955;SDS011;50131;52.084;5.228;2022-08-01T06:16:35;6.6;;;6.1;;
63955;SDS011;50131;52.084;5.228;2022-08-01T06:18:21;6.0;;;5.4;;
63955;SDS011;50131;52.084;5.228;2022-08-01T06:20:09;5.5;;;5.11;;
63955;SDS011;50131;52.084;5.228;2022-08-01T06:21:56;4.7;;;4.3;;
63955;SDS011;50131;52.084;5.228;2022-08-01T06:23:42;6.8;;;6.3;;
63955;SDS011;50131;52.084;5.228;2022-08-01T06:27:15;4.91;;;4.0;;
63955;SDS011;50131;52.084;5.228;2022-08-01T06:29:02;6.1;;;4.41;;
63955;SDS011;50131;52.084;5.228;2022-08-01T06:30:49;4.3;;;3.9;;
63955;SDS011;50131;52.084;5.228;2022-08-01T06:32:36;4.3;;;3.9;;
63955;SDS011;50131;52.084;5.228;2022-08-01T06:34:22;4.41;;;4.0;;
63955;SDS011;50131;52.084;5.228;2022-08-01T06:36:09;4.61;;;4.2;;
63955;SDS011;50131;52.084;5.228;2022-08-01T06:39:42;4.5;;;4.2;;
63955;SDS011;50131;52.084;5.228;2022-08-01T06:41:29;3.6;;;3.3;;
63955;SDS011;50131;52.084;5.228;2022-08-01T06:43:15;6.0;;;5.5;;
63955;SDS011;50131;52.084;5.228;2022-08-01T06:45:02;5.5;;;4.61;;
63955;SDS011;50131;52.084;5.228;2022-08-01T06:46:49;5.5;;;3.0;;
63955;SDS011;50131;52.084;5.228;2022-08-01T06:50:25;3.0;;;2.6;;
63955;SDS011;50131;52.084;5.228;2022-08-01T06:52:11;4.7;;;4.3;;
63955;SDS011;50131;52.084;5.228;2022-08-01T06:53:58;9.81;;;9.21;;
63955;SDS011;50131;52.084;5.228;2022-08-01T06:55:44;25.6;;;24.4;;
63955;SDS011;50131;52.084;5.228;2022-08-01T06:57:30;20.11;;;18.8;;
63955;SDS011;50131;52.084;5.228;2022-08-01T06:59:17;16.8;;;15.7;;
63955;SDS011;50131;52.084;5.228;2022-08-01T07:02:53;12.4;;;11.7;;
63955;SDS011;50131;52.084;5.228;2022-08-01T07:04:42;5.3;;;5.0;;
63955;SDS011;50131;52.084;5.228;2022-08-01T07:06:29;4.2;;;3.9;;
63955;SDS011;50131;52.084;5.228;2022-08-01T07:08:15;5.4;;;5.11;;
63955;SDS011;50131;52.084;5.228;2022-08-01T07:10:03;7.1;;;6.6;;
63955;SDS011;50131;52.084;5.228;2022-08-01T07:11:52;9.81;;;9.1;;
63955;SDS011;50131;52.084;5.228;2022-08-01T07:15:26;7.1;;;6.6;;
63955;SDS011;50131;52.084;5.228;2022-08-01T07:17:13;11.9;;;11.1;;
63955;SDS011;50131;52.084;5.228;2022-08-01T07:19:00;12.1;;;11.5;;
63955;SDS011;50131;52.084;5.228;2022-08-01T07:20:46;8.1;;;7.5;;
63955;SDS011;50131;52.084;5.228;2022-08-01T07:22:32;10.0;;;9.21;;
63955;SDS011;50131;52.084;5.228;2022-08-01T07:24:19;7.7;;;7.0;;
63955;SDS011;50131;52.084;5.228;2022-08-01T07:27:52;6.3;;;5.8;;
63955;SDS011;50131;52.084;5.228;2022-08-01T07:29:38;6.9;;;6.2;;
63955;SDS011;50131;52.084;5.228;2022-08-01T07:31:25;7.6;;;6.9;;
63955;SDS011;50131;52.084;5.228;2022-08-01T07:33:11;6.8;;;6.2;;
63955;SDS011;50131;52.084;5.228;2022-08-01T07:34:58;8.0;;;7.2;;
63955;SDS011;50131;52.084;5.228;2022-08-01T07:38:32;7.8;;;5.2;;
63955;SDS011;50131;52.084;5.228;2022-08-01T07:40:19;9.71;;;5.6;;
63955;SDS011;50131;52.084;5.228;2022-08-01T07:42:06;9.0;;;5.4;;
63955;SDS011;50131;52.084;5.228;2022-08-01T07:43:53;8.2;;;4.7;;
63955;SDS011;50131;52.084;5.228;2022-08-01T07:45:39;11.0;;;5.6;;
63955;SDS011;50131;52.084;5.228;2022-08-01T07:47:27;12.6;;;5.9;;
63955;SDS011;50131;52.084;5.228;2022-08-01T07:51:00;9.31;;;6.2;;
63955;SDS011;50131;52.084;5.228;2022-08-01T07:52:46;9.0;;;5.7;;
63955;SDS011;50131;52.084;5.228;2022-08-01T07:54:33;9.6;;;6.8;;
63955;SDS011;50131;52.084;5.228;2022-08-01T07:56:20;12.4;;;5.8;;
63955;SDS011;50131;52.084;5.228;2022-08-01T07:58:06;11.4;;;5.7;;
63955;SDS011;50131;52.084;5.228;2022-08-01T07:59:53;10.5;;;5.9;;
63955;SDS011;50131;52.084;5.228;2022-08-01T08:03:27;14.8;;;6.1;;
63955;SDS011;50131;52.084;5.228;2022-08-01T08:05:14;13.7;;;5.7;;
63955;SDS011;50131;52.084;5.228;2022-08-01T08:07:01;10.9;;;7.1;;
63955;SDS011;50131;52.084;5.228;2022-08-01T08:08:48;13.1;;;7.5;;
63955;SDS011;50131;52.084;5.228;2022-08-01T08:10:34;14.7;;;7.3;;
63955;SDS011;50131;52.084;5.228;2022-08-01T08:12:20;11.1;;;8.6;;
63955;SDS011;50131;52.084;5.228;2022-08-01T08:15:53;19.0;;;8.1;;
63955;SDS011;50131;52.084;5.228;2022-08-01T08:17:39;17.3;;;8.4;;
63955;SDS011;50131;52.084;5.228;2022-08-01T08:19:26;13.6;;;7.9;;
63955;SDS011;50131;52.084;5.228;2022-08-01T08:21:12;12.6;;;6.3;;
63955;SDS011;50131;52.084;5.228;2022-08-01T08:22:58;10.9;;;7.6;;
63955;SDS011;50131;52.084;5.228;2022-08-01T08:26:32;13.6;;;7.9;;
63955;SDS011;50131;52.084;5.228;2022-08-01T08:28:18;11.3;;;6.3;;
63955;SDS011;50131;52.084;5.228;2022-08-01T08:30:07;15.7;;;9.21;;
63955;SDS011;50131;52.084;5.228;2022-08-01T08:31:54;11.9;;;6.8;;
63955;SDS011;50131;52.084;5.228;2022-08-01T08:33:42;14.9;;;7.4;;
63955;SDS011;50131;52.084;5.228;2022-08-01T08:35:28;12.1;;;7.2;;
63955;SDS011;50131;52.084;5.228;2022-08-01T08:39:04;11.4;;;7.7;;
63955;SDS011;50131;52.084;5.228;2022-08-01T08:40:51;11.2;;;6.9;;
63955;SDS011;50131;52.084;5.228;2022-08-01T08:42:39;11.9;;;8.1;;
63955;SDS011;50131;52.084;5.228;2022-08-01T08:44:26;14.2;;;7.4;;
63955;SDS011;50131;52.084;5.228;2022-08-01T08:46:12;12.2;;;10.5;;
63955;SDS011;50131;52.084;5.228;2022-08-01T08:48:00;13.6;;;9.9;;
63955;SDS011;50131;52.084;5.228;2022-08-01T08:51:37;13.7;;;12.3;;
63955;SDS011;50131;52.084;5.228;2022-08-01T08:53:26;13.3;;;12.0;;
63955;SDS011;50131;52.084;5.228;2022-08-01T08:55:16;13.6;;;10.4;;
63955;SDS011;50131;52.084;5.228;2022-08-01T08:57:03;15.8;;;13.1;;
63955;SDS011;50131;52.084;5.228;2022-08-01T08:58:51;14.5;;;13.0;;
63955;SDS011;50131;52.084;5.228;2022-08-01T09:00:38;14.9;;;13.5;;
63955;SDS011;50131;52.084;5.228;2022-08-01T09:04:11;15.1;;;13.6;;
63955;SDS011;50131;52.084;5.228;2022-08-01T09:05:59;13.2;;;11.9;;
63955;SDS011;50131;52.084;5.228;2022-08-01T09:07:46;14.8;;;11.0;;
63955;SDS011;50131;52.084;5.228;2022-08-01T09:09:32;15.1;;;13.4;;
63955;SDS011;50131;52.084;5.228;2022-08-01T09:11:19;17.7;;;16.2;;
63955;SDS011;50131;52.084;5.228;2022-08-01T09:13:09;16.5;;;14.3;;
63955;SDS011;50131;52.084;5.228;2022-08-01T09:16:44;18.0;;;16.11;;
63955;SDS011;50131;52.084;5.228;2022-08-01T09:18:32;14.4;;;12.9;;
63955;SDS011;50131;52.084;5.228;2022-08-01T09:20:22;14.0;;;11.9;;
63955;SDS011;50131;52.084;5.228;2022-08-01T09:22:10;12.0;;;10.8;;
63955;SDS011;50131;52.084;5.228;2022-08-01T09:24:03;16.8;;;15.0;;
63955;SDS011;50131;52.084;5.228;2022-08-01T09:25:51;12.3;;;10.4;;
63955;SDS011;50131;52.084;5.228;2022-08-01T09:27:38;13.3;;;10.3;;
63955;SDS011;50131;52.084;5.228;2022-08-01T09:31:17;12.7;;;11.4;;
63955;SDS011;50131;52.084;5.228;2022-08-01T09:33:05;14.2;;;11.1;;
63955;SDS011;50131;52.084;5.228;2022-08-01T09:34:51;16.3;;;13.4;;
63955;SDS011;50131;52.084;5.228;2022-08-01T09:36:46;14.1;;;12.8;;
63955;SDS011;50131;52.084;5.228;2022-08-01T09:38:41;14.1;;;12.8;;
63955;SDS011;50131;52.084;5.228;2022-08-01T09:40:42;18.3;;;13.5;;
63955;SDS011;50131;52.084;5.228;2022-08-01T09:42:30;13.7;;;12.3;;
63955;SDS011;50131;52.084;5.228;2022-08-01T09:46:04;13.3;;;9.9;;
63955;SDS011;50131;52.084;5.228;2022-08-01T09:47:55;13.0;;;8.2;;
63955;SDS011;50131;52.084;5.228;2022-08-01T09:49:42;11.9;;;9.1;;
63955;SDS011;50131;52.084;5.228;2022-08-01T09:51:30;13.9;;;9.5;;
63955;SDS011;50131;52.084;5.228;2022-08-01T09:53:20;15.3;;;13.9;;
63955;SDS011;50131;52.084;5.228;2022-08-01T09:55:08;11.9;;;8.5;;
63955;SDS011;50131;52.084;5.228;2022-08-01T09:56:55;10.21;;;8.6;;
63955;SDS011;50131;52.084;5.228;2022-08-01T10:00:42;13.0;;;10.6;;
63955;SDS011;50131;52.084;5.228;2022-08-01T10:02:44;13.6;;;9.5;;
63955;SDS011;50131;52.084;5.228;2022-08-01T10:04:31;18.3;;;16.7;;
63955;SDS011;50131;52.084;5.228;2022-08-01T10:06:19;16.4;;;12.3;;
63955;SDS011;50131;52.084;5.228;2022-08-01T10:08:07;12.0;;;9.31;;
63955;SDS011;50131;52.084;5.228;2022-08-01T10:09:53;15.4;;;8.71;;
63955;SDS011;50131;52.084;5.228;2022-08-01T10:11:40;15.4;;;8.71;;
63955;SDS011;50131;52.084;5.228;2022-08-01T10:15:16;13.4;;;11.4;;
63955;SDS011;50131;52.084;5.228;2022-08-01T10:17:05;14.8;;;9.9;;
63955;SDS011;50131;52.084;5.228;2022-08-01T10:18:54;14.1;;;9.81;;
63955;SDS011;50131;52.084;5.228;2022-08-01T10:20:42;10.4;;;8.0;;
63955;SDS011;50131;52.084;5.228;2022-08-01T10:22:31;11.0;;;8.2;;
63955;SDS011;50131;52.084;5.228;2022-08-01T10:24:17;11.2;;;10.0;;
63955;SDS011;50131;52.084;5.228;2022-08-01T10:27:56;9.81;;;5.11;;
63955;SDS011;50131;52.084;5.228;2022-08-01T10:29:46;13.3;;;10.5;;
63955;SDS011;50131;52.084;5.228;2022-08-01T10:31:39;15.7;;;6.1;;
63955;SDS011;50131;52.084;5.228;2022-08-01T10:33:26;9.81;;;8.71;;
63955;SDS011;50131;52.084;5.228;2022-08-01T10:35:17;11.0;;;9.31;;
63955;SDS011;50131;52.084;5.228;2022-08-01T10:37:04;10.21;;;9.21;;
63955;SDS011;50131;52.084;5.228;2022-08-01T10:38:53;10.6;;;9.6;;
63955;SDS011;50131;52.084;5.228;2022-08-01T10:42:29;30.8;;;14.5;;
63955;SDS011;50131;52.084;5.228;2022-08-01T10:44:15;16.7;;;13.9;;
63955;SDS011;50131;52.084;5.228;2022-08-01T10:46:03;12.3;;;11.2;;
63955;SDS011;50131;52.084;5.228;2022-08-01T10:47:53;12.0;;;10.7;;
63955;SDS011;50131;52.084;5.228;2022-08-01T10:49:46;11.1;;;9.31;;
63955;SDS011;50131;52.084;5.228;2022-08-01T10:51:39;14.9;;;13.6;;
63955;SDS011;50131;52.084;5.228;2022-08-01T10:53:27;17.91;;;16.4;;
63955;SDS011;50131;52.084;5.228;2022-08-01T10:57:00;16.61;;;15.2;;
63955;SDS011;50131;52.084;5.228;2022-08-01T10:58:47;17.8;;;16.4;;
63955;SDS011;50131;52.084;5.228;2022-08-01T11:00:33;18.61;;;17.11;;
63955;SDS011;50131;52.084;5.228;2022-08-01T11:02:25;19.41;;;17.8;;
63955;SDS011;50131;52.084;5.228;2022-08-01T11:04:14;22.1;;;20.11;;
63955;SDS011;50131;52.084;5.228;2022-08-01T11:06:01;19.2;;;14.6;;
63955;SDS011;50131;52.084;5.228;2022-08-01T11:09:40;28.8;;;18.5;;
63955;SDS011;50131;52.084;5.228;2022-08-01T11:11:29;20.0;;;18.41;;
63955;SDS011;50131;52.084;5.228;2022-08-01T11:13:16;20.7;;;19.2;;
63955;SDS011;50131;52.084;5.228;2022-08-01T11:15:47;12.4;;;11.1;;
63955;SDS011;50131;52.084;5.228;2022-08-01T11:17:34;19.2;;;17.7;;
63955;SDS011;50131;52.084;5.228;2022-08-01T11:19:21;19.0;;;17.41;;
63955;SDS011;50131;52.084;5.228;2022-08-01T11:21:08;22.2;;;20.5;;
63955;SDS011;50131;52.084;5.228;2022-08-01T11:23:15;21.7;;;20.2;;
63955;SDS011;50131;52.084;5.228;2022-08-01T11:25:02;20.5;;;18.91;;
63955;SDS011;50131;52.084;5.228;2022-08-01T11:29:10;20.7;;;19.41;;
63955;SDS011;50131;52.084;5.228;2022-08-01T11:33:47;24.4;;;22.5;;
63955;SDS011;50131;52.084;5.228;2022-08-01T11:35:35;23.7;;;21.9;;
63955;SDS011;50131;52.084;5.228;2022-08-01T11:37:23;53.2;;;25.9;;
63955;SDS011;50131;52.084;5.228;2022-08-01T11:41:10;20.0;;;18.7;;
63955;SDS011;50131;52.084;5.228;2022-08-01T11:43:32;23.9;;;22.3;;
63955;SDS011;50131;52.084;5.228;2022-08-01T11:45:19;16.4;;;14.8;;
63955;SDS011;50131;52.084;5.228;2022-08-01T11:47:07;12.9;;;11.9;;
63955;SDS011;50131;52.084;5.228;2022-08-01T11:49:21;11.7;;;10.6;;
63955;SDS011;50131;52.084;5.228;2022-08-01T11:51:15;21.0;;;19.41;;
63955;SDS011;50131;52.084;5.228;2022-08-01T11:53:02;23.3;;;21.8;;
63955;SDS011;50131;52.084;5.228;2022-08-01T11:54:51;26.3;;;23.9;;
63955;SDS011;50131;52.084;5.228;2022-08-01T11:56:41;11.6;;;10.9;;
63955;SDS011;50131;52.084;5.228;2022-08-01T11:58:28;10.1;;;9.5;;
63955;SDS011;50131;52.084;5.228;2022-08-01T12:02:03;16.2;;;15.0;;
63955;SDS011;50131;52.084;5.228;2022-08-01T12:04:00;9.21;;;8.6;;
63955;SDS011;50131;52.084;5.228;2022-08-01T12:05:47;12.6;;;11.7;;
63955;SDS011;50131;52.084;5.228;2022-08-01T12:07:33;12.1;;;11.2;;
63955;SDS011;50131;52.084;5.228;2022-08-01T12:09:21;14.4;;;13.3;;
63955;SDS011;50131;52.084;5.228;2022-08-01T12:11:08;14.4;;;13.2;;
63955;SDS011;50131;52.084;5.228;2022-08-01T12:12:59;21.3;;;17.8;;
63955;SDS011;50131;52.084;5.228;2022-08-01T12:16:40;13.6;;;12.2;;
63955;SDS011;50131;52.084;5.228;2022-08-01T12:18:37;14.5;;;13.3;;
63955;SDS011;50131;52.084;5.228;2022-08-01T12:20:25;11.7;;;10.7;;
63955;SDS011;50131;52.084;5.228;2022-08-01T12:22:16;11.1;;;10.4;;
63955;SDS011;50131;52.084;5.228;2022-08-01T12:24:02;11.7;;;10.6;;
63955;SDS011;50131;52.084;5.228;2022-08-01T12:25:50;15.6;;;11.0;;
63955;SDS011;50131;52.084;5.228;2022-08-01T12:27:38;10.3;;;9.5;;
63955;SDS011;50131;52.084;5.228;2022-08-01T12:31:30;9.9;;;9.0;;
63955;SDS011;50131;52.084;5.228;2022-08-01T12:33:17;9.31;;;8.5;;
63955;SDS011;50131;52.084;5.228;2022-08-01T12:35:06;8.81;;;8.2;;
63955;SDS011;50131;52.084;5.228;2022-08-01T12:36:55;12.1;;;11.1;;
63955;SDS011;50131;52.084;5.228;2022-08-01T12:38:44;8.1;;;7.2;;
63955;SDS011;50131;52.084;5.228;2022-08-01T12:40:40;9.21;;;7.5;;
63955;SDS011;50131;52.084;5.228;2022-08-01T12:42:28;9.5;;;8.6;;
63955;SDS011;50131;52.084;5.228;2022-08-01T12:46:02;7.2;;;6.2;;